Huntington, IN

7:29 PM EDT on July 28, 2016 (GMT -0400)
| | Change Station

Elev -9999 ft 0.00 °N, 0.00 °E | Updated

Partly Cloudy
Partly Cloudy
73 °F
Feels Like 73 °F
N
2
Wind Variable Wind from North
Gusts mph

Today
High -- | Low -- °F
--% Chance of Precip.
Yesterday
High -- | Low -- °F
Precip. -- in
Pressure 29.86 in
Visibility 9.0 miles
Clouds Scattered Clouds 5000 ft
Scattered Clouds 13000 ft
Mostly Cloudy 25000 ft
Dew Point 68 °F
Humidity 83%
Rainfall --
Snow Depth Not available.
6:34 AM 9:01 PM
Waning Crescent, 28% visible
METAR KFWA 282254Z 36006KT 9SM -RA SCT050 SCT130 BKN250 28/19 A2988 RMK AO2 RAB50 SLP112 P0000 T02780194
Pressure 29.86 in
Visibility 9.0 miles
Clouds Scattered Clouds 5000 ft
Scattered Clouds 13000 ft
Mostly Cloudy 25000 ft
Dew Point 68 °F
Humidity 83%
Rainfall --
Snow Depth Not available.
6:34 AM 9:01 PM
Waning Crescent, 28% visible
METAR KFWA 282254Z 36006KT 9SM -RA SCT050 SCT130 BKN250 28/19 A2988 RMK AO2 RAB50 SLP112 P0000 T02780194

10-Day Weather Forecast

Almanac

Astronomy

Jul. 28, 2016 Rise Set
Actual Time
Civil Twilight
Nautical Twilight
Astronomical Twilight
Moon
Length of Visible Light
Length of Day
Tomorrow will be .
, % of the Moon is Illuminated

Today's Extremes

State Highs State Lows

Community

WunderPhotos

Upload Photos

1,928,228 photos uploaded!

WunderBlog® & News

Nearby

Air Quality

  Air Quality AQ Index Pollutant
Not available.

Snow Depth

Station Depth Elevation

Earthquake Activity

City Distance Mag. Time & Date
Minimum magnitude displayed is 2.5.

Coastal Water Temperatures

Place Temperature

Stations

Nearby Weather Stations

Station Location Temp. Windchill Dew Point Humidity Wind Precip. Elev Updated Type
                   

Watches & Warnings

There are currently no watches in effect.